sensor_id;sensor_type;location;lat;lon;timestamp;P1;durP1;ratioP1;P2;durP2;ratioP2
65189;SDS011;51777;53.570;9.984;2023-06-24T00:01:43;9.40;;;7.13;;
65189;SDS011;51777;53.570;9.984;2023-06-24T00:04:08;12.40;;;6.95;;
65189;SDS011;51777;53.570;9.984;2023-06-24T00:06:34;13.57;;;6.88;;
65189;SDS011;51777;53.570;9.984;2023-06-24T00:08:59;11.90;;;6.88;;
65189;SDS011;51777;53.570;9.984;2023-06-24T00:11:30;10.77;;;7.03;;
65189;SDS011;51777;53.570;9.984;2023-06-24T00:13:56;14.07;;;7.32;;
65189;SDS011;51777;53.570;9.984;2023-06-24T00:16:22;10.85;;;7.18;;
65189;SDS011;51777;53.570;9.984;2023-06-24T00:18:51;13.55;;;8.00;;
65189;SDS011;51777;53.570;9.984;2023-06-24T00:21:17;14.68;;;7.72;;
65189;SDS011;51777;53.570;9.984;2023-06-24T00:23:43;10.93;;;8.18;;
65189;SDS011;51777;53.570;9.984;2023-06-24T00:26:08;11.32;;;7.63;;
65189;SDS011;51777;53.570;9.984;2023-06-24T00:28:33;11.35;;;7.57;;
65189;SDS011;51777;53.570;9.984;2023-06-24T00:30:59;13.98;;;7.72;;
65189;SDS011;51777;53.570;9.984;2023-06-24T00:33:24;11.20;;;7.53;;
65189;SDS011;51777;53.570;9.984;2023-06-24T00:35:50;12.48;;;7.35;;
65189;SDS011;51777;53.570;9.984;2023-06-24T00:38:15;13.60;;;7.78;;
65189;SDS011;51777;53.570;9.984;2023-06-24T00:40:41;10.95;;;7.72;;
65189;SDS011;51777;53.570;9.984;2023-06-24T00:43:07;11.77;;;7.18;;
65189;SDS011;51777;53.570;9.984;2023-06-24T00:45:33;13.60;;;7.63;;
65189;SDS011;51777;53.570;9.984;2023-06-24T00:47:59;13.30;;;6.82;;
65189;SDS011;51777;53.570;9.984;2023-06-24T00:50:26;10.57;;;7.72;;
65189;SDS011;51777;53.570;9.984;2023-06-24T00:52:51;13.27;;;7.00;;
65189;SDS011;51777;53.570;9.984;2023-06-24T00:55:17;12.63;;;7.93;;
65189;SDS011;51777;53.570;9.984;2023-06-24T00:57:45;13.65;;;7.93;;
65189;SDS011;51777;53.570;9.984;2023-06-24T01:00:22;10.38;;;7.00;;
65189;SDS011;51777;53.570;9.984;2023-06-24T01:02:47;16.80;;;7.55;;
65189;SDS011;51777;53.570;9.984;2023-06-24T01:05:14;11.57;;;7.45;;
65189;SDS011;51777;53.570;9.984;2023-06-24T01:07:40;11.63;;;7.20;;
65189;SDS011;51777;53.570;9.984;2023-06-24T01:10:07;13.23;;;7.82;;
65189;SDS011;51777;53.570;9.984;2023-06-24T01:12:38;11.45;;;7.40;;
65189;SDS011;51777;53.570;9.984;2023-06-24T01:15:06;11.20;;;6.95;;
65189;SDS011;51777;53.570;9.984;2023-06-24T01:17:52;13.10;;;7.18;;
65189;SDS011;51777;53.570;9.984;2023-06-24T01:23:49;11.50;;;6.70;;
65189;SDS011;51777;53.570;9.984;2023-06-24T01:26:20;10.05;;;6.68;;
65189;SDS011;51777;53.570;9.984;2023-06-24T01:32:19;12.95;;;7.13;;
65189;SDS011;51777;53.570;9.984;2023-06-24T01:35:20;9.85;;;6.70;;
65189;SDS011;51777;53.570;9.984;2023-06-24T01:37:49;11.80;;;7.40;;
65189;SDS011;51777;53.570;9.984;2023-06-24T01:42:55;12.73;;;7.13;;
65189;SDS011;51777;53.570;9.984;2023-06-24T01:45:26;12.25;;;7.57;;
65189;SDS011;51777;53.570;9.984;2023-06-24T01:47:54;14.10;;;7.78;;
65189;SDS011;51777;53.570;9.984;2023-06-24T01:50:31;10.85;;;7.30;;
65189;SDS011;51777;53.570;9.984;2023-06-24T01:52:58;9.95;;;7.03;;
65189;SDS011;51777;53.570;9.984;2023-06-24T01:55:27;13.25;;;7.80;;
65189;SDS011;51777;53.570;9.984;2023-06-24T01:57:57;11.15;;;7.20;;
65189;SDS011;51777;53.570;9.984;2023-06-24T02:00:23;13.25;;;7.15;;
65189;SDS011;51777;53.570;9.984;2023-06-24T02:02:50;13.05;;;7.78;;
65189;SDS011;51777;53.570;9.984;2023-06-24T02:05:17;12.93;;;7.20;;
65189;SDS011;51777;53.570;9.984;2023-06-24T02:07:44;13.85;;;7.18;;
65189;SDS011;51777;53.570;9.984;2023-06-24T02:10:11;14.13;;;7.40;;
65189;SDS011;51777;53.570;9.984;2023-06-24T02:12:37;11.50;;;7.50;;
65189;SDS011;51777;53.570;9.984;2023-06-24T02:15:04;11.27;;;7.50;;
65189;SDS011;51777;53.570;9.984;2023-06-24T02:17:32;13.85;;;7.50;;
65189;SDS011;51777;53.570;9.984;2023-06-24T02:19:58;12.60;;;7.80;;
65189;SDS011;51777;53.570;9.984;2023-06-24T02:22:24;12.85;;;7.68;;
65189;SDS011;51777;53.570;9.984;2023-06-24T02:24:50;13.60;;;8.50;;
65189;SDS011;51777;53.570;9.984;2023-06-24T02:27:16;14.20;;;8.90;;
65189;SDS011;51777;53.570;9.984;2023-06-24T02:29:42;19.75;;;8.65;;
65189;SDS011;51777;53.570;9.984;2023-06-24T02:32:08;13.50;;;9.55;;
65189;SDS011;51777;53.570;9.984;2023-06-24T02:34:34;23.75;;;9.15;;
65189;SDS011;51777;53.570;9.984;2023-06-24T02:37:00;16.55;;;9.40;;
65189;SDS011;51777;53.570;9.984;2023-06-24T02:39:25;16.52;;;9.63;;
65189;SDS011;51777;53.570;9.984;2023-06-24T02:41:51;15.48;;;10.48;;
65189;SDS011;51777;53.570;9.984;2023-06-24T02:44:16;14.68;;;9.45;;
65189;SDS011;51777;53.570;9.984;2023-06-24T02:46:45;16.67;;;9.85;;
65189;SDS011;51777;53.570;9.984;2023-06-24T02:49:13;15.70;;;10.80;;
65189;SDS011;51777;53.570;9.984;2023-06-24T02:51:42;18.33;;;10.05;;
65189;SDS011;51777;53.570;9.984;2023-06-24T02:54:09;17.60;;;10.63;;
65189;SDS011;51777;53.570;9.984;2023-06-24T02:56:36;18.15;;;10.52;;
65189;SDS011;51777;53.570;9.984;2023-06-24T02:59:08;19.00;;;11.27;;
65189;SDS011;51777;53.570;9.984;2023-06-24T03:01:34;17.58;;;10.60;;
65189;SDS011;51777;53.570;9.984;2023-06-24T03:04:04;16.48;;;10.57;;
65189;SDS011;51777;53.570;9.984;2023-06-24T03:06:30;17.58;;;10.43;;
65189;SDS011;51777;53.570;9.984;2023-06-24T03:08:56;18.77;;;11.05;;
65189;SDS011;51777;53.570;9.984;2023-06-24T03:11:22;19.52;;;10.07;;
65189;SDS011;51777;53.570;9.984;2023-06-24T03:13:48;16.20;;;10.15;;
65189;SDS011;51777;53.570;9.984;2023-06-24T03:16:14;17.90;;;10.75;;
65189;SDS011;51777;53.570;9.984;2023-06-24T03:18:40;14.23;;;8.73;;
65189;SDS011;51777;53.570;9.984;2023-06-24T03:21:06;17.33;;;10.00;;
65189;SDS011;51777;53.570;9.984;2023-06-24T03:23:32;17.77;;;10.55;;
65189;SDS011;51777;53.570;9.984;2023-06-24T03:25:57;13.25;;;9.38;;
65189;SDS011;51777;53.570;9.984;2023-06-24T03:28:23;19.48;;;10.05;;
65189;SDS011;51777;53.570;9.984;2023-06-24T03:30:48;18.42;;;8.82;;
65189;SDS011;51777;53.570;9.984;2023-06-24T03:33:14;15.07;;;9.40;;
65189;SDS011;51777;53.570;9.984;2023-06-24T03:35:42;15.85;;;10.05;;
65189;SDS011;51777;53.570;9.984;2023-06-24T03:38:10;16.48;;;9.60;;
65189;SDS011;51777;53.570;9.984;2023-06-24T03:40:36;16.88;;;10.60;;
65189;SDS011;51777;53.570;9.984;2023-06-24T03:43:02;15.88;;;10.02;;
65189;SDS011;51777;53.570;9.984;2023-06-24T03:45:27;15.55;;;9.23;;
65189;SDS011;51777;53.570;9.984;2023-06-24T03:47:53;16.40;;;9.45;;
65189;SDS011;51777;53.570;9.984;2023-06-24T03:50:18;16.40;;;9.75;;
65189;SDS011;51777;53.570;9.984;2023-06-24T03:52:44;15.35;;;9.48;;
65189;SDS011;51777;53.570;9.984;2023-06-24T03:55:09;18.92;;;10.32;;
65189;SDS011;51777;53.570;9.984;2023-06-24T03:57:36;14.75;;;8.80;;
65189;SDS011;51777;53.570;9.984;2023-06-24T04:00:01;17.08;;;10.20;;
65189;SDS011;51777;53.570;9.984;2023-06-24T04:02:32;15.73;;;9.70;;
65189;SDS011;51777;53.570;9.984;2023-06-24T04:04:57;17.60;;;10.07;;
65189;SDS011;51777;53.570;9.984;2023-06-24T04:07:23;19.45;;;10.48;;
65189;SDS011;51777;53.570;9.984;2023-06-24T04:09:55;15.60;;;9.85;;
65189;SDS011;51777;53.570;9.984;2023-06-24T04:12:21;16.52;;;10.18;;
65189;SDS011;51777;53.570;9.984;2023-06-24T04:14:47;16.63;;;9.93;;
65189;SDS011;51777;53.570;9.984;2023-06-24T04:17:12;16.60;;;10.18;;
65189;SDS011;51777;53.570;9.984;2023-06-24T04:19:38;17.30;;;9.45;;
65189;SDS011;51777;53.570;9.984;2023-06-24T04:22:04;13.02;;;8.73;;
65189;SDS011;51777;53.570;9.984;2023-06-24T04:24:30;14.07;;;8.50;;
65189;SDS011;51777;53.570;9.984;2023-06-24T04:26:55;13.05;;;9.10;;
65189;SDS011;51777;53.570;9.984;2023-06-24T04:29:20;10.95;;;8.10;;
65189;SDS011;51777;53.570;9.984;2023-06-24T04:31:46;12.43;;;8.23;;
65189;SDS011;51777;53.570;9.984;2023-06-24T04:34:11;13.20;;;8.23;;
65189;SDS011;51777;53.570;9.984;2023-06-24T04:36:36;12.68;;;8.07;;
65189;SDS011;51777;53.570;9.984;2023-06-24T04:39:03;16.90;;;8.13;;
65189;SDS011;51777;53.570;9.984;2023-06-24T04:41:29;14.23;;;8.10;;
65189;SDS011;51777;53.570;9.984;2023-06-24T04:43:57;12.10;;;7.10;;
65189;SDS011;51777;53.570;9.984;2023-06-24T04:46:22;10.73;;;7.55;;
65189;SDS011;51777;53.570;9.984;2023-06-24T04:48:48;12.27;;;7.18;;
65189;SDS011;51777;53.570;9.984;2023-06-24T04:51:13;10.48;;;7.22;;
65189;SDS011;51777;53.570;9.984;2023-06-24T04:53:39;12.82;;;6.30;;
65189;SDS011;51777;53.570;9.984;2023-06-24T04:56:05;13.48;;;6.72;;
65189;SDS011;51777;53.570;9.984;2023-06-24T04:58:30;15.20;;;6.22;;
65189;SDS011;51777;53.570;9.984;2023-06-24T05:00:56;12.13;;;6.82;;
65189;SDS011;51777;53.570;9.984;2023-06-24T05:03:21;10.63;;;6.18;;
65189;SDS011;51777;53.570;9.984;2023-06-24T05:05:47;12.02;;;6.75;;
65189;SDS011;51777;53.570;9.984;2023-06-24T05:08:13;9.18;;;6.50;;
65189;SDS011;51777;53.570;9.984;2023-06-24T05:10:38;11.98;;;6.88;;
65189;SDS011;51777;53.570;9.984;2023-06-24T05:13:03;10.43;;;6.50;;
65189;SDS011;51777;53.570;9.984;2023-06-24T05:15:29;12.27;;;6.22;;
65189;SDS011;51777;53.570;9.984;2023-06-24T05:17:55;9.18;;;5.43;;
65189;SDS011;51777;53.570;9.984;2023-06-24T05:20:21;10.88;;;5.90;;
65189;SDS011;51777;53.570;9.984;2023-06-24T05:22:46;6.90;;;5.22;;
65189;SDS011;51777;53.570;9.984;2023-06-24T05:25:11;8.60;;;5.75;;
65189;SDS011;51777;53.570;9.984;2023-06-24T05:27:37;12.23;;;5.50;;
65189;SDS011;51777;53.570;9.984;2023-06-24T05:30:02;10.73;;;5.68;;
65189;SDS011;51777;53.570;9.984;2023-06-24T05:32:28;5.53;;;4.70;;
65189;SDS011;51777;53.570;9.984;2023-06-24T05:34:53;11.95;;;4.63;;
65189;SDS011;51777;53.570;9.984;2023-06-24T05:37:19;11.70;;;4.70;;
65189;SDS011;51777;53.570;9.984;2023-06-24T05:39:44;8.73;;;4.38;;
65189;SDS011;51777;53.570;9.984;2023-06-24T05:42:09;7.75;;;4.10;;
65189;SDS011;51777;53.570;9.984;2023-06-24T05:44:34;9.45;;;4.10;;
65189;SDS011;51777;53.570;9.984;2023-06-24T05:47:00;8.93;;;4.10;;
65189;SDS011;51777;53.570;9.984;2023-06-24T05:49:25;7.38;;;4.15;;
65189;SDS011;51777;53.570;9.984;2023-06-24T05:51:51;7.55;;;3.90;;
65189;SDS011;51777;53.570;9.984;2023-06-24T05:54:16;8.25;;;3.63;;
65189;SDS011;51777;53.570;9.984;2023-06-24T05:56:41;8.13;;;3.78;;
65189;SDS011;51777;53.570;9.984;2023-06-24T05:59:07;5.75;;;3.58;;
65189;SDS011;51777;53.570;9.984;2023-06-24T06:01:32;6.72;;;3.55;;
65189;SDS011;51777;53.570;9.984;2023-06-24T06:03:58;7.00;;;3.75;;
65189;SDS011;51777;53.570;9.984;2023-06-24T06:06:23;7.60;;;4.05;;
65189;SDS011;51777;53.570;9.984;2023-06-24T06:08:48;7.20;;;4.03;;
65189;SDS011;51777;53.570;9.984;2023-06-24T06:11:14;5.97;;;4.20;;
65189;SDS011;51777;53.570;9.984;2023-06-24T06:13:39;9.07;;;3.70;;
65189;SDS011;51777;53.570;9.984;2023-06-24T06:16:05;7.90;;;3.70;;
65189;SDS011;51777;53.570;9.984;2023-06-24T06:18:30;8.70;;;3.72;;
65189;SDS011;51777;53.570;9.984;2023-06-24T06:20:56;8.50;;;3.67;;
65189;SDS011;51777;53.570;9.984;2023-06-24T06:23:21;8.25;;;4.35;;
65189;SDS011;51777;53.570;9.984;2023-06-24T06:25:46;5.93;;;3.90;;
65189;SDS011;51777;53.570;9.984;2023-06-24T06:28:12;7.13;;;4.20;;
65189;SDS011;51777;53.570;9.984;2023-06-24T06:30:38;5.57;;;3.85;;
65189;SDS011;51777;53.570;9.984;2023-06-24T06:33:03;8.13;;;4.20;;
65189;SDS011;51777;53.570;9.984;2023-06-24T06:35:29;8.02;;;4.40;;
65189;SDS011;51777;53.570;9.984;2023-06-24T06:37:54;5.40;;;4.00;;
65189;SDS011;51777;53.570;9.984;2023-06-24T06:40:22;9.15;;;4.05;;
65189;SDS011;51777;53.570;9.984;2023-06-24T06:42:48;6.53;;;3.42;;
65189;SDS011;51777;53.570;9.984;2023-06-24T06:45:14;7.60;;;3.60;;
65189;SDS011;51777;53.570;9.984;2023-06-24T06:47:40;6.43;;;3.70;;
65189;SDS011;51777;53.570;9.984;2023-06-24T06:50:05;5.85;;;3.35;;
65189;SDS011;51777;53.570;9.984;2023-06-24T06:52:31;5.22;;;3.15;;
65189;SDS011;51777;53.570;9.984;2023-06-24T06:54:57;7.18;;;3.40;;
65189;SDS011;51777;53.570;9.984;2023-06-24T06:57:23;7.75;;;3.10;;
65189;SDS011;51777;53.570;9.984;2023-06-24T06:59:48;5.70;;;3.03;;
65189;SDS011;51777;53.570;9.984;2023-06-24T07:02:17;4.28;;;3.20;;
65189;SDS011;51777;53.570;9.984;2023-06-24T07:04:43;5.93;;;3.40;;
65189;SDS011;51777;53.570;9.984;2023-06-24T07:07:09;8.15;;;3.20;;
65189;SDS011;51777;53.570;9.984;2023-06-24T07:09:34;3.78;;;2.78;;
65189;SDS011;51777;53.570;9.984;2023-06-24T07:12:00;4.63;;;2.35;;
65189;SDS011;51777;53.570;9.984;2023-06-24T07:14:25;4.63;;;2.60;;
65189;SDS011;51777;53.570;9.984;2023-06-24T07:16:50;4.10;;;2.33;;
65189;SDS011;51777;53.570;9.984;2023-06-24T07:19:16;5.70;;;2.50;;
65189;SDS011;51777;53.570;9.984;2023-06-24T07:21:41;5.97;;;2.80;;
65189;SDS011;51777;53.570;9.984;2023-06-24T07:24:07;5.43;;;2.88;;
65189;SDS011;51777;53.570;9.984;2023-06-24T07:26:32;7.63;;;3.40;;
65189;SDS011;51777;53.570;9.984;2023-06-24T07:28:57;7.70;;;3.47;;
65189;SDS011;51777;53.570;9.984;2023-06-24T07:31:23;4.05;;;3.20;;
65189;SDS011;51777;53.570;9.984;2023-06-24T07:33:49;7.30;;;3.30;;
65189;SDS011;51777;53.570;9.984;2023-06-24T07:36:14;6.35;;;3.03;;
65189;SDS011;51777;53.570;9.984;2023-06-24T07:38:40;8.55;;;3.10;;
65189;SDS011;51777;53.570;9.984;2023-06-24T07:41:05;7.07;;;3.10;;
65189;SDS011;51777;53.570;9.984;2023-06-24T07:43:31;8.35;;;3.38;;
65189;SDS011;51777;53.570;9.984;2023-06-24T07:45:56;5.50;;;3.00;;
65189;SDS011;51777;53.570;9.984;2023-06-24T07:48:21;6.63;;;3.30;;
65189;SDS011;51777;53.570;9.984;2023-06-24T07:50:47;5.40;;;3.08;;
65189;SDS011;51777;53.570;9.984;2023-06-24T07:53:12;3.92;;;3.05;;
65189;SDS011;51777;53.570;9.984;2023-06-24T07:55:37;6.95;;;2.70;;
65189;SDS011;51777;53.570;9.984;2023-06-24T07:58:03;4.40;;;2.90;;
65189;SDS011;51777;53.570;9.984;2023-06-24T08:00:30;6.72;;;2.88;;
65189;SDS011;51777;53.570;9.984;2023-06-24T08:02:56;6.32;;;2.70;;
65189;SDS011;51777;53.570;9.984;2023-06-24T08:05:23;5.43;;;3.03;;
65189;SDS011;51777;53.570;9.984;2023-06-24T08:07:50;6.75;;;2.92;;
65189;SDS011;51777;53.570;9.984;2023-06-24T08:10:16;4.57;;;3.03;;
65189;SDS011;51777;53.570;9.984;2023-06-24T08:12:42;5.80;;;2.85;;
65189;SDS011;51777;53.570;9.984;2023-06-24T08:15:08;6.68;;;2.88;;
65189;SDS011;51777;53.570;9.984;2023-06-24T08:17:34;7.88;;;2.80;;
65189;SDS011;51777;53.570;9.984;2023-06-24T08:20:00;5.70;;;2.85;;
65189;SDS011;51777;53.570;9.984;2023-06-24T08:22:27;4.95;;;2.80;;
65189;SDS011;51777;53.570;9.984;2023-06-24T08:24:52;6.40;;;2.90;;
65189;SDS011;51777;53.570;9.984;2023-06-24T08:27:17;5.18;;;2.40;;
65189;SDS011;51777;53.570;9.984;2023-06-24T08:29:43;5.10;;;2.28;;
65189;SDS011;51777;53.570;9.984;2023-06-24T08:32:08;4.88;;;2.40;;
65189;SDS011;51777;53.570;9.984;2023-06-24T08:34:34;4.32;;;2.20;;
65189;SDS011;51777;53.570;9.984;2023-06-24T08:37:00;6.68;;;2.10;;
65189;SDS011;51777;53.570;9.984;2023-06-24T08:39:25;4.60;;;2.03;;
65189;SDS011;51777;53.570;9.984;2023-06-24T08:41:51;4.78;;;2.20;;
65189;SDS011;51777;53.570;9.984;2023-06-24T08:44:16;4.55;;;2.67;;
65189;SDS011;51777;53.570;9.984;2023-06-24T08:46:42;4.07;;;2.28;;
65189;SDS011;51777;53.570;9.984;2023-06-24T08:49:16;4.75;;;2.00;;
65189;SDS011;51777;53.570;9.984;2023-06-24T08:51:51;3.22;;;1.95;;
65189;SDS011;51777;53.570;9.984;2023-06-24T08:54:24;4.60;;;1.83;;
65189;SDS011;51777;53.570;9.984;2023-06-24T08:56:50;2.75;;;1.70;;
65189;SDS011;51777;53.570;9.984;2023-06-24T08:59:17;2.80;;;1.90;;
65189;SDS011;51777;53.570;9.984;2023-06-24T09:01:44;8.10;;;2.63;;
65189;SDS011;51777;53.570;9.984;2023-06-24T09:04:11;3.10;;;1.73;;
65189;SDS011;51777;53.570;9.984;2023-06-24T09:06:36;3.83;;;1.83;;
65189;SDS011;51777;53.570;9.984;2023-06-24T09:09:02;2.90;;;2.10;;
65189;SDS011;51777;53.570;9.984;2023-06-24T09:11:27;2.60;;;1.50;;
65189;SDS011;51777;53.570;9.984;2023-06-24T09:13:56;3.63;;;1.90;;
65189;SDS011;51777;53.570;9.984;2023-06-24T09:16:23;3.35;;;1.83;;
65189;SDS011;51777;53.570;9.984;2023-06-24T09:18:49;2.55;;;1.73;;
65189;SDS011;51777;53.570;9.984;2023-06-24T09:21:22;3.05;;;1.80;;
65189;SDS011;51777;53.570;9.984;2023-06-24T09:23:54;4.30;;;1.83;;
65189;SDS011;51777;53.570;9.984;2023-06-24T09:26:24;3.50;;;2.00;;
65189;SDS011;51777;53.570;9.984;2023-06-24T09:28:50;2.95;;;2.15;;
65189;SDS011;51777;53.570;9.984;2023-06-24T09:31:16;3.20;;;1.80;;
65189;SDS011;51777;53.570;9.984;2023-06-24T09:33:42;6.68;;;1.85;;
65189;SDS011;51777;53.570;9.984;2023-06-24T09:36:11;4.57;;;1.80;;
65189;SDS011;51777;53.570;9.984;2023-06-24T09:38:37;3.30;;;1.85;;
65189;SDS011;51777;53.570;9.984;2023-06-24T09:41:06;3.80;;;2.15;;
65189;SDS011;51777;53.570;9.984;2023-06-24T09:43:35;2.85;;;2.10;;
65189;SDS011;51777;53.570;9.984;2023-06-24T09:46:02;3.60;;;2.13;;
65189;SDS011;51777;53.570;9.984;2023-06-24T09:48:28;4.30;;;2.03;;
65189;SDS011;51777;53.570;9.984;2023-06-24T09:51:01;4.90;;;2.03;;
65189;SDS011;51777;53.570;9.984;2023-06-24T09:53:30;3.85;;;1.98;;
65189;SDS011;51777;53.570;9.984;2023-06-24T09:55:57;3.20;;;2.08;;
65189;SDS011;51777;53.570;9.984;2023-06-24T09:58:25;4.47;;;1.98;;
65189;SDS011;51777;53.570;9.984;2023-06-24T10:00:50;4.88;;;2.50;;
65189;SDS011;51777;53.570;9.984;2023-06-24T10:03:17;5.07;;;3.00;;
65189;SDS011;51777;53.570;9.984;2023-06-24T10:05:43;6.65;;;2.00;;
65189;SDS011;51777;53.570;9.984;2023-06-24T10:08:08;3.00;;;2.30;;
65189;SDS011;51777;53.570;9.984;2023-06-24T10:10:35;4.15;;;2.70;;
65189;SDS011;51777;53.570;9.984;2023-06-24T10:13:00;3.22;;;2.10;;
65189;SDS011;51777;53.570;9.984;2023-06-24T10:15:26;3.38;;;2.15;;
65189;SDS011;51777;53.570;9.984;2023-06-24T10:17:52;4.90;;;2.50;;
65189;SDS011;51777;53.570;9.984;2023-06-24T10:20:24;3.97;;;2.30;;
65189;SDS011;51777;53.570;9.984;2023-06-24T10:22:51;4.30;;;2.50;;
65189;SDS011;51777;53.570;9.984;2023-06-24T10:25:16;2.38;;;2.10;;
65189;SDS011;51777;53.570;9.984;2023-06-24T10:27:43;4.20;;;2.20;;
65189;SDS011;51777;53.570;9.984;2023-06-24T10:30:08;4.35;;;2.42;;
65189;SDS011;51777;53.570;9.984;2023-06-24T10:32:43;3.85;;;2.30;;
65189;SDS011;51777;53.570;9.984;2023-06-24T10:35:24;3.30;;;2.10;;
65189;SDS011;51777;53.570;9.984;2023-06-24T10:37:59;5.82;;;2.35;;
65189;SDS011;51777;53.570;9.984;2023-06-24T10:45:51;3.95;;;2.20;;
65189;SDS011;51777;53.570;9.984;2023-06-24T10:48:17;3.05;;;2.10;;
65189;SDS011;51777;53.570;9.984;2023-06-24T10:50:46;2.55;;;2.35;;
65189;SDS011;51777;53.570;9.984;2023-06-24T10:53:12;3.20;;;2.15;;
65189;SDS011;51777;53.570;9.984;2023-06-24T10:55:38;5.22;;;2.63;;
65189;SDS011;51777;53.570;9.984;2023-06-24T10:58:10;4.70;;;2.80;;
65189;SDS011;51777;53.570;9.984;2023-06-24T11:00:37;5.00;;;2.55;;
65189;SDS011;51777;53.570;9.984;2023-06-24T11:03:10;3.83;;;2.13;;
65189;SDS011;51777;53.570;9.984;2023-06-24T11:05:38;5.65;;;2.17;;
65189;SDS011;51777;53.570;9.984;2023-06-24T11:08:05;10.73;;;2.20;;
65189;SDS011;51777;53.570;9.984;2023-06-24T11:10:31;2.95;;;2.00;;
65189;SDS011;51777;53.570;9.984;2023-06-24T11:12:56;2.85;;;2.50;;
65189;SDS011;51777;53.570;9.984;2023-06-24T11:15:24;3.83;;;2.40;;
65189;SDS011;51777;53.570;9.984;2023-06-24T11:17:53;3.47;;;1.80;;
65189;SDS011;51777;53.570;9.984;2023-06-24T11:20:18;3.20;;;2.30;;
65189;SDS011;51777;53.570;9.984;2023-06-24T11:22:43;5.78;;;2.35;;
65189;SDS011;51777;53.570;9.984;2023-06-24T11:25:19;3.58;;;2.30;;
65189;SDS011;51777;53.570;9.984;2023-06-24T11:27:49;2.95;;;1.98;;
65189;SDS011;51777;53.570;9.984;2023-06-24T11:30:17;3.72;;;2.03;;
65189;SDS011;51777;53.570;9.984;2023-06-24T11:32:43;4.78;;;2.20;;
65189;SDS011;51777;53.570;9.984;2023-06-24T11:35:10;3.35;;;2.20;;
65189;SDS011;51777;53.570;9.984;2023-06-24T11:37:36;3.80;;;1.90;;
65189;SDS011;51777;53.570;9.984;2023-06-24T11:40:03;3.00;;;1.90;;
65189;SDS011;51777;53.570;9.984;2023-06-24T11:42:30;4.28;;;1.92;;
65189;SDS011;51777;53.570;9.984;2023-06-24T11:45:00;3.72;;;2.38;;
65189;SDS011;51777;53.570;9.984;2023-06-24T11:47:27;4.53;;;2.30;;
65189;SDS011;51777;53.570;9.984;2023-06-24T11:49:57;7.45;;;2.70;;
65189;SDS011;51777;53.570;9.984;2023-06-24T11:55:01;4.40;;;2.30;;
65189;SDS011;51777;53.570;9.984;2023-06-24T12:00:35;3.95;;;2.10;;
65189;SDS011;51777;53.570;9.984;2023-06-24T12:03:04;4.13;;;1.90;;
65189;SDS011;51777;53.570;9.984;2023-06-24T12:05:31;3.17;;;2.00;;
65189;SDS011;51777;53.570;9.984;2023-06-24T12:07:59;5.88;;;2.20;;
65189;SDS011;51777;53.570;9.984;2023-06-24T12:10:26;2.67;;;2.22;;
65189;SDS011;51777;53.570;9.984;2023-06-24T12:12:53;4.47;;;2.28;;
65189;SDS011;51777;53.570;9.984;2023-06-24T12:15:19;5.63;;;2.40;;
65189;SDS011;51777;53.570;9.984;2023-06-24T12:17:45;4.60;;;2.25;;
65189;SDS011;51777;53.570;9.984;2023-06-24T12:20:10;3.42;;;2.45;;
65189;SDS011;51777;53.570;9.984;2023-06-24T12:22:36;3.95;;;2.13;;
65189;SDS011;51777;53.570;9.984;2023-06-24T12:25:01;4.07;;;1.95;;
65189;SDS011;51777;53.570;9.984;2023-06-24T12:27:27;3.70;;;2.10;;
65189;SDS011;51777;53.570;9.984;2023-06-24T12:29:53;3.47;;;2.20;;
65189;SDS011;51777;53.570;9.984;2023-06-24T12:32:18;3.75;;;2.17;;
65189;SDS011;51777;53.570;9.984;2023-06-24T12:34:44;4.57;;;2.28;;
65189;SDS011;51777;53.570;9.984;2023-06-24T12:37:09;3.05;;;2.20;;
65189;SDS011;51777;53.570;9.984;2023-06-24T12:39:34;3.50;;;2.20;;
65189;SDS011;51777;53.570;9.984;2023-06-24T12:42:00;2.45;;;2.05;;
65189;SDS011;51777;53.570;9.984;2023-06-24T12:44:25;4.20;;;2.05;;
65189;SDS011;51777;53.570;9.984;2023-06-24T12:46:52;3.38;;;2.03;;
65189;SDS011;51777;53.570;9.984;2023-06-24T12:49:17;3.65;;;2.00;;
65189;SDS011;51777;53.570;9.984;2023-06-24T12:51:43;6.88;;;2.08;;
65189;SDS011;51777;53.570;9.984;2023-06-24T12:54:08;3.33;;;2.20;;
65189;SDS011;51777;53.570;9.984;2023-06-24T12:56:34;3.10;;;2.00;;
65189;SDS011;51777;53.570;9.984;2023-06-24T12:58:59;4.10;;;2.00;;
65189;SDS011;51777;53.570;9.984;2023-06-24T13:01:24;2.45;;;2.10;;
65189;SDS011;51777;53.570;9.984;2023-06-24T13:03:50;3.08;;;1.98;;
65189;SDS011;51777;53.570;9.984;2023-06-24T13:06:15;5.10;;;2.22;;
65189;SDS011;51777;53.570;9.984;2023-06-24T13:08:41;4.97;;;2.03;;
65189;SDS011;51777;53.570;9.984;2023-06-24T13:11:08;3.40;;;2.42;;
65189;SDS011;51777;53.570;9.984;2023-06-24T13:13:34;2.85;;;2.15;;
65189;SDS011;51777;53.570;9.984;2023-06-24T13:15:59;4.22;;;2.28;;
65189;SDS011;51777;53.570;9.984;2023-06-24T13:18:25;3.90;;;2.10;;
65189;SDS011;51777;53.570;9.984;2023-06-24T13:20:50;4.90;;;2.83;;
65189;SDS011;51777;53.570;9.984;2023-06-24T13:23:16;3.70;;;2.60;;
65189;SDS011;51777;53.570;9.984;2023-06-24T13:25:41;5.10;;;2.20;;
65189;SDS011;51777;53.570;9.984;2023-06-24T13:28:06;2.83;;;2.05;;
65189;SDS011;51777;53.570;9.984;2023-06-24T13:30:32;2.17;;;1.98;;
65189;SDS011;51777;53.570;9.984;2023-06-24T13:32:57;2.50;;;2.17;;
65189;SDS011;51777;53.570;9.984;2023-06-24T13:35:23;4.30;;;2.00;;
65189;SDS011;51777;53.570;9.984;2023-06-24T13:37:48;3.38;;;2.33;;
65189;SDS011;51777;53.570;9.984;2023-06-24T13:40:14;4.85;;;2.20;;
65189;SDS011;51777;53.570;9.984;2023-06-24T13:42:39;3.92;;;2.30;;
65189;SDS011;51777;53.570;9.984;2023-06-24T13:45:05;2.92;;;2.33;;
65189;SDS011;51777;53.570;9.984;2023-06-24T13:47:30;3.58;;;2.42;;
65189;SDS011;51777;53.570;9.984;2023-06-24T13:49:56;8.13;;;2.42;;
65189;SDS011;51777;53.570;9.984;2023-06-24T13:52:22;4.50;;;2.47;;
65189;SDS011;51777;53.570;9.984;2023-06-24T13:54:47;3.22;;;2.40;;
65189;SDS011;51777;53.570;9.984;2023-06-24T13:57:13;2.95;;;2.30;;
65189;SDS011;51777;53.570;9.984;2023-06-24T13:59:38;3.50;;;2.45;;
65189;SDS011;51777;53.570;9.984;2023-06-24T14:02:04;4.53;;;2.40;;
65189;SDS011;51777;53.570;9.984;2023-06-24T14:04:30;4.45;;;2.30;;
65189;SDS011;51777;53.570;9.984;2023-06-24T14:06:55;3.35;;;2.30;;
65189;SDS011;51777;53.570;9.984;2023-06-24T14:09:21;2.85;;;2.50;;
65189;SDS011;51777;53.570;9.984;2023-06-24T14:11:46;4.47;;;2.40;;
65189;SDS011;51777;53.570;9.984;2023-06-24T14:14:12;5.90;;;2.30;;
65189;SDS011;51777;53.570;9.984;2023-06-24T14:16:37;3.28;;;2.20;;
65189;SDS011;51777;53.570;9.984;2023-06-24T14:19:02;4.25;;;2.20;;
65189;SDS011;51777;53.570;9.984;2023-06-24T14:21:28;5.65;;;2.20;;
65189;SDS011;51777;53.570;9.984;2023-06-24T14:23:56;6.65;;;2.30;;
65189;SDS011;51777;53.570;9.984;2023-06-24T14:26:22;8.15;;;2.65;;
65189;SDS011;51777;53.570;9.984;2023-06-24T14:28:47;5.00;;;2.20;;
65189;SDS011;51777;53.570;9.984;2023-06-24T14:31:12;2.38;;;2.10;;
65189;SDS011;51777;53.570;9.984;2023-06-24T14:33:38;3.20;;;2.00;;
65189;SDS011;51777;53.570;9.984;2023-06-24T14:36:03;5.65;;;2.33;;
65189;SDS011;51777;53.570;9.984;2023-06-24T14:38:29;3.72;;;2.10;;
65189;SDS011;51777;53.570;9.984;2023-06-24T14:40:54;2.85;;;2.30;;
65189;SDS011;51777;53.570;9.984;2023-06-24T14:43:21;3.10;;;2.10;;
65189;SDS011;51777;53.570;9.984;2023-06-24T14:45:46;3.15;;;2.15;;
65189;SDS011;51777;53.570;9.984;2023-06-24T14:48:12;2.35;;;2.00;;
65189;SDS011;51777;53.570;9.984;2023-06-24T14:50:37;3.15;;;2.10;;
65189;SDS011;51777;53.570;9.984;2023-06-24T14:53:03;2.97;;;2.20;;
65189;SDS011;51777;53.570;9.984;2023-06-24T14:55:28;5.50;;;2.20;;
65189;SDS011;51777;53.570;9.984;2023-06-24T14:57:54;3.83;;;2.20;;
65189;SDS011;51777;53.570;9.984;2023-06-24T15:00:19;5.93;;;2.10;;